サンフランシスコ の空港の天気 - METARとTAF

サンフランシスコ国際空港 ( KSFO / SFO ) - アメリカ カリフォルニア州サンマテオ郡
飛行場実況気象(Metar)
観測時間02/20 16:56 PST (02/21 00:56 UTC)
風向・風速西北西 12m/s 瞬間風速16m/s
視程10km以上
天気現象
少しの雲 雲底高度 760m
少しの雲 雲底高度 1070m
気温11.1℃
湿度61%
気圧1009hPa
METARKSFO 210056Z 29023G32KT 10SM FEW025 FEW035 11/04 A2980 RMK AO2 PK WND 29033/0031 SLP090 T01110039
過去の天気等 Google飛行場航空写真 Wunderground天気予報

過去48時間のMETAR

飛行場予報(TAF)
発表時間: 2/20 15:25 PST (2/20 23:25 UTC)
予報対象時間: 20日16時 PST ~ 21日22時 PST
風向・風速西北西 11m/s 瞬間風速 15m/s
視程10km以上
天気現象周辺でしゅう雨
少しの雲 雲底高度 910m
全天の4割程度の雲 雲底高度 1520m
全天の4割程度の雲 雲底高度 3050m
20日20時 PST から
風向・風速北西 7m/s 瞬間風速 13m/s
視程10km以上
少しの雲 雲底高度 910m
少しの雲 雲底高度 1520m
21日3時 PST から
風向・風速北北西 7m/s
視程10km以上
少しの雲 雲底高度 1220m
全天の4割程度の雲 雲底高度 7620m
21日13時 PST から
風向・風速北北西 7m/s 瞬間風速 12m/s
視程10km以上
少しの雲 雲底高度 7620m
21日19時 PST から
風向・風速北西 6m/s
視程10km以上
なし
KSFO 202325Z 2100/2206 30022G30KT P6SM VCSH FEW030 SCT050 SCT100
FM210400 31014G25KT P6SM FEW030 FEW050
FM211100 33013KT P6SM FEW040 SCT250
FM212100 33014G24KT P6SM FEW250
FM220300 31012KT P6SM SKC